Time;durP1;ratioP1;P1;durP2;ratioP2;P2;SDS_P1;SDS_P2;PMS_P1;PMS_P2;Temp;Humidity;BMP_temperature;BMP_pressure;BME280_temperature;BME280_humidity;BME280_pressure;Samples;Min_cycle;Max_cycle;Signal;HPM_P1;HPM_P2
2022/03/30 07:58:12;;;;;;;43.45;23.58;;;;;;;8.21;100.00;97552.31;5082852;27;20369;-86
2022/03/30 08:00:39;;;;;;;49.22;23.67;;;;;;;8.31;100.00;97552.72;5129542;27;20501;-86
2022/03/30 08:03:06;;;;;;;48.38;25.67;;;;;;;8.39;100.00;97552.50;5128540;27;20096;-86
2022/03/30 08:05:33;;;;;;;51.90;24.65;;;;;;;8.45;100.00;97534.63;5129373;27;20122;-86
2022/03/30 08:08:01;;;;;;;48.72;24.95;;;;;;;8.53;100.00;97549.81;5127936;27;20055;-86
2022/03/30 08:10:28;;;;;;;42.65;24.33;;;;;;;8.74;100.00;97562.25;5111778;27;20053;-86
2022/03/30 08:12:57;;;;;;;47.13;23.67;;;;;;;8.66;100.00;97552.47;5073314;27;20055;-86
2022/03/30 08:15:26;;;;;;;63.27;25.33;;;;;;;8.69;100.00;97546.63;5129013;27;20050;-86
2022/03/30 08:17:54;;;;;;;59.75;22.83;;;;;;;8.73;100.00;97550.59;5128826;27;20050;-86
2022/03/30 08:23:07;;;;;;;52.33;22.17;;;;;;;8.90;100.00;97552.81;5066920;27;20115;-86
2022/03/30 08:25:34;;;;;;;52.08;22.20;;;;;;;8.91;100.00;97544.47;5026413;28;20121;-86
2022/03/30 08:28:02;;;;;;;53.70;21.33;;;;;;;9.08;100.00;97560.25;5025254;28;20145;-87
2022/03/30 08:30:31;;;;;;;56.15;22.95;;;;;;;8.89;100.00;97551.16;5052599;28;20047;-86
2022/03/30 08:32:58;;;;;;;44.10;20.80;;;;;;;8.94;100.00;97546.78;5073788;27;20145;-86
2022/03/30 08:35:25;;;;;;;52.00;21.88;;;;;;;9.03;100.00;97550.91;5023257;28;20041;-86
2022/03/30 08:37:52;;;;;;;49.85;22.73;;;;;;;9.16;100.00;97562.75;5068593;27;20322;-86
2022/03/30 08:40:20;;;;;;;53.55;23.38;;;;;;;9.18;100.00;97569.63;5027648;28;20073;-87
2022/03/30 08:42:50;;;;;;;64.05;23.38;;;;;;;9.19;100.00;97556.88;5025467;28;20054;-87
2022/03/30 08:45:17;;;;;;;54.05;21.60;;;;;;;9.29;100.00;97568.09;5019857;28;20552;-86
2022/03/30 08:47:47;;;;;;;41.90;19.85;;;;;;;9.25;100.00;97561.44;5110013;27;20416;-86
2022/03/30 08:50:13;;;;;;;38.88;19.52;;;;;;;9.27;100.00;97562.03;5066626;27;20505;-86
2022/03/30 08:52:41;;;;;;;33.42;19.38;;;;;;;9.28;100.00;97560.19;5020363;28;20048;-86
2022/03/30 08:55:08;;;;;;;38.70;18.63;;;;;;;9.15;100.00;97550.22;5025140;27;20053;-86
2022/03/30 08:57:35;;;;;;;40.72;19.08;;;;;;;9.42;100.00;97560.94;5024341;28;20054;-86
2022/03/30 09:00:06;;;;;;;39.70;19.73;;;;;;;9.52;100.00;97558.59;5024666;27;20053;-86
2022/03/30 09:02:37;;;;;;;38.22;19.65;;;;;;;9.35;100.00;97550.97;5059359;27;20050;-86
2022/03/30 09:05:18;;;;;;;39.55;20.27;;;;;;;9.47;100.00;97564.69;5021583;27;20476;-85
2022/03/30 09:07:48;;;;;;;37.00;17.85;;;;;;;9.39;100.00;97544.06;5019213;27;20053;-85
2022/03/30 09:10:16;;;;;;;33.75;18.02;;;;;;;9.53;100.00;97568.41;5011477;28;20054;-85
2022/03/30 09:12:45;;;;;;;31.77;16.23;;;;;;;9.57;100.00;97539.78;5010199;28;20506;-85
2022/03/30 09:15:13;;;;;;;40.17;16.42;;;;;;;9.72;100.00;97561.19;5011527;28;20507;-85
2022/03/30 09:17:41;;;;;;;35.88;18.25;;;;;;;9.71;100.00;97548.66;5005901;28;20128;-85
2022/03/30 09:20:13;;;;;;;33.47;17.50;;;;;;;9.75;100.00;97555.31;4994940;28;20069;-85
2022/03/30 09:22:45;;;;;;;38.88;19.00;;;;;;;9.60;100.00;97522.25;4991263;28;20066;-86
2022/03/30 09:25:12;;;;;;;41.25;17.42;;;;;;;9.80;100.00;97539.22;4991443;28;20133;-85
2022/03/30 09:27:42;;;;;;;31.95;17.13;;;;;;;9.95;100.00;97540.78;4991148;28;20097;-85
2022/03/30 09:30:11;;;;;;;37.75;18.70;;;;;;;9.95;100.00;97536.19;4991447;28;20058;-86
2022/03/30 09:32:40;;;;;;;38.08;19.58;;;;;;;10.01;100.00;97520.88;4990878;28;20251;-85
2022/03/30 09:35:19;;;;;;;39.80;20.02;;;;;;;10.12;100.00;97536.47;5012465;28;20073;-84
2022/03/30 09:38:02;;;;;;;43.70;19.90;;;;;;;10.16;100.00;97534.97;5113735;28;20063;-84
2022/03/30 09:40:37;;;;;;;35.63;19.23;;;;;;;10.24;100.00;97531.16;5115213;28;20422;-85
2022/03/30 09:43:22;;;;;;;39.75;16.85;;;;;;;10.24;100.00;97533.88;5113962;28;20071;-85
2022/03/30 09:45:50;;;;;;;40.38;18.75;;;;;;;10.25;100.00;97520.06;5086571;28;20441;-85
2022/03/30 09:48:21;;;;;;;45.10;18.67;;;;;;;10.33;100.00;97537.09;4997296;28;20049;-84
2022/03/30 09:50:50;;;;;;;35.70;16.58;;;;;;;10.33;100.00;97529.84;5011794;28;20139;-85
2022/03/30 09:53:20;;;;;;;37.42;15.40;;;;;;;10.35;100.00;97544.00;5115388;28;20052;-86
2022/03/30 09:56:08;;;;;;;31.73;15.65;;;;;;;10.03;100.00;97526.94;5117048;28;20491;-85
2022/03/30 09:58:37;;;;;;;40.53;16.70;;;;;;;10.10;100.00;97514.13;5109436;28;20043;-85
2022/03/30 10:01:08;;;;;;;39.38;16.70;;;;;;;10.14;100.00;97520.78;5037631;28;20086;-85
2022/03/30 10:03:39;;;;;;;39.88;18.35;;;;;;;9.98;100.00;97518.59;5008834;28;20133;-85
2022/03/30 10:06:08;;;;;;;34.90;17.05;;;;;;;9.85;100.00;97509.53;5070337;28;20114;-85
2022/03/30 10:08:37;;;;;;;47.55;20.33;;;;;;;9.98;100.00;97508.59;5112688;28;20061;-84
2022/03/30 10:11:04;;;;;;;45.72;17.73;;;;;;;10.04;100.00;97507.72;5113461;28;20043;-85
2022/03/30 10:13:31;;;;;;;43.22;18.67;;;;;;;9.95;100.00;97491.91;5104533;27;20055;-85
2022/03/30 10:15:59;;;;;;;36.47;16.60;;;;;;;9.99;100.00;97498.56;4990794;28;20054;-85
2022/03/30 10:18:26;;;;;;;39.63;16.35;;;;;;;9.94;100.00;97492.97;4990260;28;20054;-84
2022/03/30 10:21:06;;;;;;;35.85;16.33;;;;;;;9.96;100.00;97496.28;5059503;28;20038;-84
2022/03/30 10:23:48;;;;;;;43.40;16.52;;;;;;;10.01;100.00;97501.88;5112316;28;20089;-84
2022/03/30 10:26:27;;;;;;;37.38;16.67;;;;;;;9.91;100.00;97503.22;5113259;28;20058;-84
2022/03/30 10:28:59;;;;;;;35.17;17.50;;;;;;;9.86;100.00;97486.78;5049207;28;20088;-85
2022/03/30 10:31:28;;;;;;;43.50;17.92;;;;;;;9.87;100.00;97491.13;5009910;28;20454;-85
2022/03/30 10:33:55;;;;;;;31.45;16.05;;;;;;;9.82;100.00;97493.69;5009642;28;20081;-85
2022/03/30 10:36:25;;;;;;;44.90;16.95;;;;;;;9.80;100.00;97474.09;5008115;28;20054;-84
2022/03/30 10:39:11;;;;;;;29.65;16.23;;;;;;;9.83;100.00;97481.78;5009164;28;20046;-85
2022/03/30 10:41:51;;;;;;;35.63;16.65;;;;;;;9.82;100.00;97490.16;5008445;28;20046;-84
2022/03/30 10:44:42;;;;;;;40.45;17.58;;;;;;;9.94;100.00;97482.13;4989534;28;20054;-85
2022/03/30 10:47:14;;;;;;;40.05;18.35;;;;;;;9.87;100.00;97477.56;4990199;28;20054;-84
2022/03/30 10:49:46;;;;;;;38.35;17.27;;;;;;;10.00;100.00;97475.81;4990053;28;20285;-84
2022/03/30 10:52:37;;;;;;;39.03;18.42;;;;;;;10.00;100.00;97457.63;4989111;28;20422;-85
2022/03/30 10:58:36;;;;;;;36.72;16.90;;;;;;;9.97;100.00;97468.09;5107701;28;20160;-85
2022/03/30 11:01:13;;;;;;;46.78;17.25;;;;;;;9.93;100.00;97462.28;5112705;28;20118;-85
2022/03/30 11:03:56;;;;;;;40.15;16.63;;;;;;;10.02;100.00;97454.69;5111689;28;20764;-85
2022/03/30 11:06:23;;;;;;;45.20;18.02;;;;;;;10.11;100.00;97469.63;5007694;28;20050;-85
2022/03/30 11:08:57;;;;;;;42.47;18.98;;;;;;;10.10;100.00;97465.25;5008074;28;20058;-86
2022/03/30 11:11:25;;;;;;;40.40;17.58;;;;;;;9.93;100.00;97451.41;5078506;28;20057;-85
2022/03/30 11:14:25;;;;;;;33.42;17.63;;;;;;;9.96;100.00;97453.69;5018586;28;20503;-85
2022/03/30 11:16:53;;;;;;;35.67;16.33;;;;;;;9.87;100.00;97447.69;5009202;28;20049;-85
2022/03/30 11:19:22;;;;;;;34.03;14.85;;;;;;;9.83;100.00;97453.78;5007870;28;20045;-85
2022/03/30 11:22:09;;;;;;;47.13;15.55;;;;;;;9.83;100.00;97449.22;5008941;28;20497;-85
2022/03/30 11:24:36;;;;;;;34.63;15.45;;;;;;;9.82;100.00;97444.00;5008945;28;20125;-85
2022/03/30 11:27:19;;;;;;;27.90;13.10;;;;;;;9.88;100.00;97440.41;5023333;28;20036;-84
2022/03/30 11:30:01;;;;;;;33.05;14.05;;;;;;;9.84;100.00;97442.72;5066148;28;20458;-86
2022/03/30 11:33:08;;;;;;;34.33;13.77;;;;;;;9.97;100.00;97446.38;5008163;28;20049;-84
2022/03/30 11:35:39;;;;;;;27.25;13.15;;;;;;;9.87;100.00;97444.97;4989671;28;20413;-84
2022/03/30 11:38:11;;;;;;;27.98;12.95;;;;;;;9.76;100.00;97421.31;4988954;28;20057;-84
2022/03/30 11:40:41;;;;;;;28.95;13.07;;;;;;;9.85;100.00;97435.44;4989294;28;20057;-84
2022/03/30 11:43:10;;;;;;;32.70;13.05;;;;;;;9.84;100.00;97440.00;5014386;28;20047;-84
2022/03/30 11:45:39;;;;;;;36.20;15.57;;;;;;;9.85;100.00;97424.56;5022070;28;20118;-84
2022/03/30 11:48:08;;;;;;;38.38;15.77;;;;;;;9.94;100.00;97425.94;5008510;28;20133;-85
2022/03/30 11:50:36;;;;;;;34.25;15.75;;;;;;;10.04;100.00;97437.13;5033933;28;20077;-84
2022/03/30 11:53:05;;;;;;;35.90;16.88;;;;;;;9.92;100.00;97415.31;5007752;28;20082;-85
2022/03/30 11:55:35;;;;;;;34.58;16.67;;;;;;;10.21;100.00;97437.38;5008973;28;20054;-85
2022/03/30 11:58:04;;;;;;;39.35;17.02;;;;;;;10.22;100.00;97422.75;5020313;28;20048;-85
2022/03/30 12:00:36;;;;;;;37.50;16.40;;;;;;;10.49;100.00;97425.16;5072081;28;20081;-85
2022/03/30 12:03:04;;;;;;;36.65;16.35;;;;;;;10.53;100.00;97403.81;5107954;28;20043;-85
2022/03/30 12:05:31;;;;;;;41.65;15.50;;;;;;;10.56;100.00;97415.06;5073520;28;20477;-84
2022/03/30 12:08:00;;;;;;;35.05;16.40;;;;;;;10.39;100.00;97425.72;5007159;28;20501;-85
2022/03/30 12:10:30;;;;;;;40.65;16.52;;;;;;;10.35;100.00;97415.53;5008721;28;20050;-85
2022/03/30 12:12:56;;;;;;;38.67;16.52;;;;;;;10.32;100.00;97424.91;5008040;28;20046;-84
2022/03/30 12:15:23;;;;;;;29.23;15.55;;;;;;;10.30;100.00;97412.59;5004842;28;20486;-84
2022/03/30 12:17:52;;;;;;;38.20;15.70;;;;;;;10.28;100.00;97420.97;5051592;28;20135;-84
2022/03/30 12:20:27;;;;;;;33.83;13.93;;;;;;;10.10;100.00;97427.22;5002351;28;20119;-84
2022/03/30 12:22:59;;;;;;;29.27;13.85;;;;;;;10.06;100.00;97423.31;4988590;28;20058;-84
2022/03/30 12:25:31;;;;;;;29.42;13.63;;;;;;;9.80;100.00;97411.66;4988883;28;20060;-83
2022/03/30 12:27:59;;;;;;;31.05;13.70;;;;;;;9.79;100.00;97412.72;4987400;28;20051;-84
2022/03/30 12:30:27;;;;;;;25.42;12.00;;;;;;;9.70;100.00;97400.47;4988818;28;20051;-85
2022/03/30 12:32:54;;;;;;;14.77;9.75;;;;;;;9.29;100.00;97420.81;5002690;28;20535;-84
2022/03/30 12:35:21;;;;;;;20.13;10.35;;;;;;;8.96;100.00;97409.16;5036396;28;20118;-84
2022/03/30 12:37:49;;;;;;;21.10;11.70;;;;;;;8.92;100.00;97401.69;5008216;28;20103;-85
2022/03/30 12:40:21;;;;;;;18.02;10.05;;;;;;;8.85;100.00;97423.38;5008186;28;20058;-84
2022/03/30 12:42:49;;;;;;;14.70;8.98;;;;;;;8.71;100.00;97411.78;5007560;28;20125;-85
2022/03/30 12:45:18;;;;;;;17.17;9.85;;;;;;;8.77;100.00;97415.53;5011586;28;20054;-84
2022/03/30 12:47:48;;;;;;;22.20;11.13;;;;;;;8.75;100.00;97415.72;5011370;28;20070;-85
2022/03/30 12:50:18;;;;;;;15.98;10.65;;;;;;;8.82;100.00;97408.41;5029481;28;20043;-84
2022/03/30 12:52:48;;;;;;;17.52;11.77;;;;;;;8.93;100.00;97417.72;5114196;27;20051;-84
2022/03/30 12:55:19;;;;;;;21.10;12.15;;;;;;;8.76;100.00;97413.84;5115288;28;20047;-84
2022/03/30 12:57:54;;;;;;;19.40;12.20;;;;;;;8.64;100.00;97409.13;5114489;28;20126;-84
2022/03/30 13:00:24;;;;;;;19.05;12.13;;;;;;;8.83;100.00;97418.19;5115018;28;20043;-84
2022/03/30 13:03:03;;;;;;;22.25;14.00;;;;;;;8.74;100.00;97402.41;5114176;28;20478;-84
2022/03/30 13:05:30;;;;;;;21.52;11.82;;;;;;;8.81;100.00;97408.63;5057185;28;20061;-85
2022/03/30 13:07:59;;;;;;;17.10;9.95;;;;;;;8.75;100.00;97410.31;5045790;28;20051;-85
2022/03/30 13:10:28;;;;;;;15.20;9.50;;;;;;;8.62;100.00;97419.31;5010945;28;20046;-85
2022/03/30 13:12:56;;;;;;;15.35;8.75;;;;;;;8.50;100.00;97399.38;5010270;28;20057;-84
2022/03/30 13:15:25;;;;;;;13.35;8.02;;;;;;;8.46;100.00;97408.97;5010668;28;20054;-85
2022/03/30 13:18:00;;;;;;;14.88;9.45;;;;;;;8.52;100.00;97404.59;5010748;28;20100;-84
2022/03/30 13:20:28;;;;;;;13.95;9.63;;;;;;;8.60;100.00;97412.47;4993952;28;20401;-85
2022/03/30 13:22:59;;;;;;;12.75;9.50;;;;;;;8.37;100.00;97392.13;4991442;28;20165;-85
2022/03/30 13:25:41;;;;;;;18.08;9.43;;;;;;;8.44;100.00;97397.53;5010961;28;20441;-85
2022/03/30 13:28:21;;;;;;;17.30;9.93;;;;;;;8.42;100.00;97386.88;5010839;28;20439;-85
2022/03/30 13:30:48;;;;;;;17.08;10.18;;;;;;;8.44;100.00;97392.94;5010390;28;20469;-85
2022/03/30 13:33:14;;;;;;;17.52;10.88;;;;;;;8.47;100.00;97386.28;5009955;28;20064;-84
2022/03/30 13:35:41;;;;;;;18.27;9.88;;;;;;;8.33;100.00;97394.41;5008729;28;20564;-85
2022/03/30 13:38:16;;;;;;;17.48;10.48;;;;;;;8.26;100.00;97380.06;5010543;28;20042;-85
2022/03/30 13:40:44;;;;;;;17.40;11.45;;;;;;;8.37;100.00;97389.41;5011892;28;20125;-84
2022/03/30 13:43:11;;;;;;;25.98;11.00;;;;;;;8.31;100.00;97388.41;5092187;28;20397;-85
2022/03/30 13:45:38;;;;;;;18.60;10.93;;;;;;;8.30;100.00;97375.88;5010342;28;20125;-84
2022/03/30 13:48:08;;;;;;;22.17;11.75;;;;;;;8.42;100.00;97386.06;5009645;28;20129;-85
2022/03/30 13:50:39;;;;;;;24.38;12.60;;;;;;;8.47;100.00;97365.44;5014079;28;20148;-84
2022/03/30 13:53:06;;;;;;;18.38;11.27;;;;;;;8.59;100.00;97375.59;5010992;28;20060;-85
2022/03/30 13:55:34;;;;;;;21.83;12.50;;;;;;;8.70;100.00;97369.47;5010202;28;20050;-85
2022/03/30 13:58:04;;;;;;;29.73;14.63;;;;;;;8.65;100.00;97378.25;5009899;28;20046;-85
2022/03/30 14:00:31;;;;;;;24.02;13.93;;;;;;;8.71;100.00;97383.88;5004812;28;20145;-85
2022/03/30 14:03:00;;;;;;;28.42;15.63;;;;;;;8.78;100.00;97368.41;5008725;28;20058;-85
2022/03/30 14:05:30;;;;;;;24.73;15.07;;;;;;;8.77;100.00;97353.19;4992432;28;20054;-85
2022/03/30 14:07:57;;;;;;;26.25;14.60;;;;;;;9.03;100.00;97363.03;4989608;28;20460;-84
2022/03/30 14:10:25;;;;;;;25.33;15.50;;;;;;;8.94;100.00;97362.47;4990865;28;20074;-84
2022/03/30 14:12:53;;;;;;;27.88;14.50;;;;;;;8.85;100.00;97339.38;4989812;28;20050;-85
2022/03/30 14:15:21;;;;;;;27.48;15.52;;;;;;;8.96;100.00;97363.09;5022125;28;20311;-85
2022/03/30 14:17:49;;;;;;;28.55;15.25;;;;;;;8.78;100.00;97371.94;5018849;28;20057;-85
2022/03/30 14:20:15;;;;;;;26.60;15.20;;;;;;;8.85;100.00;97359.19;4990214;28;20047;-85
2022/03/30 14:22:44;;;;;;;19.10;12.13;;;;;;;8.70;100.00;97342.38;4989285;28;20074;-84
2022/03/30 14:25:11;;;;;;;16.90;9.70;;;;;;;8.62;100.00;97364.31;4990370;28;20119;-85
2022/03/30 14:27:38;;;;;;;15.68;9.10;;;;;;;8.32;100.00;97341.31;4990055;28;20386;-85
2022/03/30 14:30:06;;;;;;;10.80;8.25;;;;;;;8.43;100.00;97353.34;4990425;28;20129;-85
2022/03/30 14:32:35;;;;;;;13.82;7.68;;;;;;;8.33;100.00;97356.50;4988550;28;20078;-85
2022/03/30 14:35:02;;;;;;;12.57;7.93;;;;;;;8.32;100.00;97352.16;5009257;28;20066;-85
2022/03/30 14:37:41;;;;;;;10.40;6.90;;;;;;;8.21;100.00;97341.97;5010613;28;20049;-85
2022/03/30 14:40:10;;;;;;;10.77;7.20;;;;;;;8.37;100.00;97359.63;5010312;28;20489;-85
2022/03/30 14:42:37;;;;;;;10.68;6.88;;;;;;;8.22;100.00;97368.03;5010667;28;20144;-84
2022/03/30 14:45:05;;;;;;;11.50;6.93;;;;;;;7.92;100.00;97357.69;5009472;28;20053;-84
2022/03/30 14:47:31;;;;;;;11.05;6.90;;;;;;;7.85;100.00;97346.06;5008604;28;20315;-84
2022/03/30 14:49:59;;;;;;;12.27;6.53;;;;;;;8.03;100.00;97366.22;5049582;28;20054;-84
2022/03/30 14:52:26;;;;;;;11.80;6.80;;;;;;;8.11;100.00;97374.94;5083068;28;20055;-84
2022/03/30 14:54:55;;;;;;;11.77;7.13;;;;;;;8.21;100.00;97360.13;5112753;28;20471;-84
2022/03/30 14:57:23;;;;;;;9.30;6.70;;;;;;;8.34;100.00;97362.78;5112577;28;20052;-84
2022/03/30 14:59:49;;;;;;;13.45;7.45;;;;;;;8.33;100.00;97350.28;5111960;28;20051;-84
2022/03/30 15:02:16;;;;;;;13.98;7.90;;;;;;;8.33;100.00;97334.84;5067822;28;20447;-84
2022/03/30 15:04:43;;;;;;;13.50;7.50;;;;;;;8.50;100.00;97358.75;5001485;28;20100;-84
2022/03/30 15:07:12;;;;;;;10.65;6.57;;;;;;;8.35;100.00;97350.06;5004329;28;20041;-84
2022/03/30 15:09:39;;;;;;;15.75;7.95;;;;;;;8.49;100.00;97352.53;5049817;28;20130;-84
2022/03/30 15:12:07;;;;;;;15.60;8.52;;;;;;;8.38;100.00;97355.03;5116060;28;20183;-84
2022/03/30 15:14:33;;;;;;;14.80;8.25;;;;;;;8.36;100.00;97344.44;5112021;28;20050;-83
2022/03/30 15:17:00;;;;;;;15.43;8.52;;;;;;;8.38;100.00;97341.50;5043456;28;20092;-83
2022/03/30 15:19:27;;;;;;;13.68;8.02;;;;;;;8.21;100.00;97336.56;5006704;28;20057;-83
2022/03/30 15:21:55;;;;;;;17.15;9.20;;;;;;;8.14;100.00;97331.19;5059787;28;20412;-83
2022/03/30 15:24:23;;;;;;;13.82;8.50;;;;;;;8.42;100.00;97345.44;5111598;28;20383;-83
2022/03/30 15:26:51;;;;;;;13.93;7.97;;;;;;;8.19;100.00;97324.28;5117047;28;20483;-84
2022/03/30 15:29:19;;;;;;;16.27;8.70;;;;;;;8.23;100.00;97330.94;5110238;28;20117;-83
2022/03/30 15:31:45;;;;;;;15.18;8.32;;;;;;;8.21;100.00;97343.88;5004771;28;20065;-84
2022/03/30 15:34:14;;;;;;;16.55;9.15;;;;;;;8.17;100.00;97321.78;5008080;28;20569;-84
2022/03/30 15:36:41;;;;;;;14.02;7.82;;;;;;;8.23;100.00;97339.06;5008811;28;20118;-84
2022/03/30 15:39:10;;;;;;;12.05;7.95;;;;;;;8.22;100.00;97343.66;5008141;28;20473;-84
2022/03/30 15:41:39;;;;;;;11.20;7.57;;;;;;;8.26;100.00;97334.03;5014554;28;20053;-83
2022/03/30 15:44:06;;;;;;;13.98;8.02;;;;;;;8.28;100.00;97331.97;5029349;28;20049;-83
2022/03/30 15:46:33;;;;;;;16.50;9.38;;;;;;;8.28;100.00;97336.53;5026315;28;20059;-83
2022/03/30 15:49:01;;;;;;;12.30;8.48;;;;;;;8.28;100.00;97337.38;5050954;28;20475;-83
2022/03/30 15:51:32;;;;;;;15.48;8.38;;;;;;;8.04;100.00;97325.41;5004073;28;20408;-84
2022/03/30 15:54:00;;;;;;;;;;;;;;;8.27;100.00;97338.41;5012019;28;20102;-85
2022/03/30 15:56:28;;;;;;;13.75;8.45;;;;;;;8.32;100.00;97335.91;5029221;28;19932;-83
2022/03/30 15:58:56;;;;;;;16.55;9.52;;;;;;;8.19;100.00;97352.22;5029977;28;20069;-83
2022/03/30 16:01:23;;;;;;;15.93;9.02;;;;;;;8.09;100.00;97327.47;5018673;28;20087;-84
2022/03/30 16:03:52;;;;;;;17.90;10.43;;;;;;;8.15;100.00;97342.84;4991226;28;20082;-83
2022/03/30 16:06:18;;;;;;;18.30;10.70;;;;;;;8.01;100.00;97320.41;4990922;28;20250;-84
2022/03/30 16:09:02;;;;;;;16.05;9.35;;;;;;;8.13;100.00;97344.94;5049319;28;20491;-83
2022/03/30 16:14:28;;;;;;;17.23;10.40;;;;;;;8.00;100.00;97353.94;4947995;28;20138;-84
2022/03/30 16:16:56;;;;;;;19.98;10.02;;;;;;;7.98;100.00;97343.31;4979322;28;20137;-83
2022/03/30 16:19:24;;;;;;;16.95;10.55;;;;;;;8.04;100.00;97341.63;4991874;28;20107;-83
2022/03/30 16:21:52;;;;;;;18.92;10.95;;;;;;;7.94;100.00;97323.13;4992204;28;20082;-83
2022/03/30 16:24:22;;;;;;;23.50;13.48;;;;;;;7.98;100.00;97334.38;4991290;28;20137;-83
2022/03/30 16:26:51;;;;;;;20.58;10.13;;;;;;;7.79;100.00;97352.31;5001941;28;20050;-83
2022/03/30 16:29:20;;;;;;;20.13;11.82;;;;;;;7.61;100.00;97325.94;5012366;28;20362;-83
2022/03/30 16:31:48;;;;;;;20.67;10.95;;;;;;;7.85;100.00;97337.13;5011986;28;20045;-83
2022/03/30 16:34:16;;;;;;;22.52;10.90;;;;;;;7.74;100.00;97338.59;5011204;28;20481;-84
2022/03/30 16:36:49;;;;;;;23.15;11.15;;;;;;;7.86;100.00;97330.66;5012071;28;20058;-85
2022/03/30 16:39:18;;;;;;;21.65;11.27;;;;;;;7.91;100.00;97355.19;5011102;28;20081;-84
2022/03/30 16:41:44;;;;;;;20.98;11.30;;;;;;;7.74;100.00;97349.44;5009530;28;20074;-82
2022/03/30 16:44:12;;;;;;;20.33;11.80;;;;;;;7.65;100.00;97351.50;5024864;28;20172;-83
2022/03/30 16:46:50;;;;;;;21.10;12.05;;;;;;;7.66;100.00;97361.28;5115185;28;20487;-84
2022/03/30 16:49:20;;;;;;;21.65;11.43;;;;;;;7.41;100.00;97342.19;5115020;28;20047;-83
2022/03/30 16:51:47;;;;;;;20.67;11.98;;;;;;;7.37;100.00;97335.53;5114551;28;20043;-83
2022/03/30 16:54:16;;;;;;;22.40;11.77;;;;;;;7.40;100.00;97343.22;5080094;28;20486;-83
2022/03/30 16:56:43;;;;;;;21.15;11.38;;;;;;;7.36;100.00;97334.72;5010916;28;20065;-83
2022/03/30 16:59:12;;;;;;;21.35;11.90;;;;;;;7.45;100.00;97351.53;5011268;28;20102;-84
2022/03/30 17:01:39;;;;;;;26.65;12.95;;;;;;;7.51;100.00;97348.00;5049200;28;20053;-83
2022/03/30 17:04:06;;;;;;;23.55;12.35;;;;;;;7.44;100.00;97355.28;5028033;28;20071;-84
2022/03/30 17:06:34;;;;;;;26.92;13.98;;;;;;;7.36;100.00;97339.25;5114246;28;20142;-83
2022/03/30 17:11:45;;;;;;;23.02;13.05;;;;;;;7.39;100.00;97355.91;5009683;28;20053;-83
2022/03/30 17:14:11;;;;;;;24.00;12.80;;;;;;;7.32;100.00;97344.25;5114144;27;20051;-83
2022/03/30 17:16:40;;;;;;;22.33;12.32;;;;;;;7.41;100.00;97339.47;5114354;28;20044;-83
2022/03/30 17:19:07;;;;;;;23.95;12.75;;;;;;;7.29;100.00;97346.53;5114573;28;20040;-83
2022/03/30 17:21:35;;;;;;;24.63;13.35;;;;;;;7.31;100.00;97342.59;5114235;28;20082;-83
2022/03/30 17:24:02;;;;;;;21.48;11.55;;;;;;;7.41;100.00;97359.22;5029814;28;20061;-83
2022/03/30 17:26:29;;;;;;;24.25;12.07;;;;;;;7.45;100.00;97351.53;4995472;28;20079;-83
2022/03/30 17:28:56;;;;;;;21.35;12.15;;;;;;;7.51;100.00;97347.16;5105759;28;20047;-83
2022/03/30 17:31:22;;;;;;;27.92;14.38;;;;;;;7.51;100.00;97355.28;5114328;28;20138;-83
2022/03/30 17:33:49;;;;;;;15.57;8.30;;;;;;;7.20;100.00;97346.75;5113392;28;20087;-82
2022/03/30 17:36:17;;;;;;;29.10;14.82;;;;;;;7.28;100.00;97353.81;5113934;28;20134;-83
2022/03/30 17:38:47;;;;;;;25.95;13.63;;;;;;;7.40;100.00;97360.25;5000890;28;20058;-83
2022/03/30 17:41:15;;;;;;;;;;;;;;;7.35;100.00;97370.06;4991111;28;20497;-83
2022/03/30 17:43:42;;;;;;;24.98;14.00;;;;;;;7.29;100.00;97363.59;5091683;28;19920;-83
2022/03/30 17:46:09;;;;;;;26.23;13.57;;;;;;;7.29;100.00;97352.78;5010679;28;20141;-83
2022/03/30 17:54:06;;;;;;;32.70;15.10;;;;;;;7.37;100.00;97371.50;4998951;28;20072;-83
2022/03/30 17:56:33;;;;;;;27.08;14.23;;;;;;;7.30;100.00;97353.63;4990614;28;20046;-84
2022/03/30 17:58:59;;;;;;;24.95;14.10;;;;;;;7.23;100.00;97345.53;5005059;28;20046;-83
2022/03/30 18:01:26;;;;;;;30.40;14.55;;;;;;;7.19;100.00;97353.19;5070312;28;20035;-83
2022/03/30 18:03:53;;;;;;;26.75;15.13;;;;;;;7.28;100.00;97358.41;5112763;28;20130;-84
2022/03/30 18:06:20;;;;;;;28.50;14.25;;;;;;;7.37;100.00;97366.09;5075390;28;20071;-83
2022/03/30 18:08:51;;;;;;;23.88;14.05;;;;;;;7.32;100.00;97374.00;5009005;28;20050;-85
2022/03/30 18:11:29;;;;;;;28.77;14.63;;;;;;;7.35;100.00;97368.19;4999680;28;20060;-85
2022/03/30 18:13:57;;;;;;;25.88;13.05;;;;;;;7.29;100.00;97371.72;5006289;28;20448;-83
2022/03/30 18:16:25;;;;;;;29.85;13.73;;;;;;;7.26;100.00;97361.31;5010808;28;20057;-83
2022/03/30 18:18:57;;;;;;;24.83;12.65;;;;;;;7.25;100.00;97359.66;5009619;28;20053;-84
2022/03/30 18:21:25;;;;;;;27.92;14.32;;;;;;;7.26;100.00;97359.44;4996235;28;20057;-82
2022/03/30 18:23:52;;;;;;;26.75;13.38;;;;;;;7.34;100.00;97371.09;4996975;28;20050;-83
2022/03/30 18:26:20;;;;;;;28.77;14.13;;;;;;;7.24;100.00;97366.09;5086185;28;20050;-83
2022/03/30 18:28:47;;;;;;;27.98;14.52;;;;;;;7.24;100.00;97358.81;5009350;28;20128;-79
